Time;durP1;ratioP1;P1;durP2;ratioP2;P2;SDS_P1;SDS_P2;PMS_P1;PMS_P2;Temp;Humidity;BMP_temperature;BMP_pressure;BME280_temperature;BME280_humidity;BME280_pressure;Samples;Min_cycle;Max_cycle;Signal;HPM_P1;HPM_P2
2021/06/22 00:02:23;;;;;;;14.18;2.60;;;;;;;21.89;56.65;100360.95;1716838;83;21271;-57
2021/06/22 00:05:31;;;;;;;11.33;2.65;;;;;;;21.91;56.32;100350.41;1718930;82;21200;-57
2021/06/22 00:08:37;;;;;;;12.40;3.10;;;;;;;21.96;55.82;100351.33;1666832;86;21225;-58
2021/06/22 00:11:43;;;;;;;11.53;2.70;;;;;;;22.01;55.37;100352.81;1684868;84;21271;-57
2021/06/22 00:14:50;;;;;;;7.83;2.62;;;;;;;22.06;55.04;100350.13;1719118;82;21402;-58
2021/06/22 00:17:55;;;;;;;17.35;3.35;;;;;;;22.09;54.80;100344.05;1717615;82;21196;-58
2021/06/22 00:21:00;;;;;;;11.03;3.27;;;;;;;22.15;54.54;100347.78;1717757;82;21244;-58
2021/06/22 00:24:11;;;;;;;13.35;3.22;;;;;;;22.19;54.32;100360.97;1718693;82;21212;-58
2021/06/22 00:27:15;;;;;;;17.92;3.08;;;;;;;22.22;54.33;100367.97;1717386;82;21240;-58
2021/06/22 00:30:21;;;;;;;14.13;2.87;;;;;;;22.23;54.76;100374.69;1717320;82;21247;-57
2021/06/22 00:33:27;;;;;;;11.50;2.90;;;;;;;22.23;54.38;100359.35;1719842;82;21228;-57
2021/06/22 00:36:32;;;;;;;14.07;2.72;;;;;;;22.26;54.24;100362.74;1717600;82;21264;-58
2021/06/22 00:39:38;;;;;;;11.00;2.80;;;;;;;22.26;54.15;100363.59;1716909;82;21256;-57
2021/06/22 00:42:43;;;;;;;8.88;2.45;;;;;;;22.29;54.23;100365.02;1717174;82;21766;-57
2021/06/22 00:45:48;;;;;;;11.65;2.58;;;;;;;22.27;54.37;100356.91;1717138;82;21295;-57
2021/06/22 00:48:56;;;;;;;11.55;2.80;;;;;;;22.28;54.48;100350.80;1717501;82;21217;-59
2021/06/22 00:52:03;;;;;;;8.23;2.65;;;;;;;22.28;54.53;100357.20;1718870;82;21228;-58
2021/06/22 00:55:12;;;;;;;9.08;2.80;;;;;;;22.31;54.15;100357.26;1718153;82;21188;-58
2021/06/22 00:58:19;;;;;;;12.80;2.77;;;;;;;22.32;53.99;100357.00;1734393;79;21417;-58
2021/06/22 01:01:24;;;;;;;10.60;2.60;;;;;;;22.36;53.90;100367.94;1719470;82;21212;-58
2021/06/22 01:04:30;;;;;;;9.10;2.25;;;;;;;22.36;54.01;100374.91;1717434;82;21197;-57
2021/06/22 01:07:43;;;;;;;10.60;2.72;;;;;;;22.38;54.35;100381.62;1716791;82;21257;-57
2021/06/22 01:10:48;;;;;;;16.90;2.50;;;;;;;22.38;54.46;100388.61;1717143;82;21401;-57
2021/06/22 01:13:53;;;;;;;12.85;2.75;;;;;;;22.36;54.75;100381.06;1716865;82;21240;-58
2021/06/22 01:17:01;;;;;;;10.08;2.60;;;;;;;22.36;54.55;100386.64;1717124;83;21244;-58
2021/06/22 01:20:09;;;;;;;11.55;2.80;;;;;;;22.35;54.45;100383.53;1716900;82;21252;-58
2021/06/22 01:23:14;;;;;;;10.90;2.98;;;;;;;22.35;54.37;100385.78;1716961;83;21316;-58
2021/06/22 01:26:21;;;;;;;12.05;2.47;;;;;;;22.35;54.19;100387.18;1718724;82;21260;-58
2021/06/22 01:29:27;;;;;;;10.55;2.98;;;;;;;22.35;54.24;100394.69;1716476;82;21220;-58
2021/06/22 01:32:32;;;;;;;16.25;3.17;;;;;;;22.34;54.29;100393.88;1716506;83;21256;-58
2021/06/22 01:35:37;;;;;;;7.03;2.30;;;;;;;22.35;53.88;100401.12;1716802;82;21244;-58
2021/06/22 01:38:43;;;;;;;10.13;2.50;;;;;;;22.38;53.67;100401.16;1716765;82;21239;-57
2021/06/22 01:41:48;;;;;;;10.68;2.85;;;;;;;22.38;53.55;100401.16;1716936;83;21236;-57
2021/06/22 01:44:54;;;;;;;12.73;3.22;;;;;;;22.39;53.21;100398.11;1717389;82;21213;-57
2021/06/22 01:47:59;;;;;;;6.60;2.30;;;;;;;22.40;53.19;100398.44;1717392;82;21725;-57
2021/06/22 01:51:06;;;;;;;13.40;2.60;;;;;;;22.41;53.23;100395.07;1717221;82;21295;-57
2021/06/22 01:54:15;;;;;;;10.82;2.87;;;;;;;22.42;53.29;100395.39;1717282;82;21189;-58
2021/06/22 01:57:23;;;;;;;9.13;2.42;;;;;;;22.43;53.08;100397.07;1716566;82;21268;-58
2021/06/22 02:00:31;;;;;;;9.58;2.20;;;;;;;22.41;53.29;100395.07;1734651;78;21353;-57
2021/06/22 02:03:37;;;;;;;14.95;3.58;;;;;;;22.39;53.36;100393.93;1739874;82;21192;-59
2021/06/22 02:06:43;;;;;;;15.03;3.12;;;;;;;22.39;53.47;100384.73;1739147;81;21252;-57
2021/06/22 02:10:10;;;;;;;10.28;2.70;;;;;;;22.38;53.44;100374.12;1733511;81;21272;-57
2021/06/22 02:13:28;;;;;;;12.55;2.58;;;;;;;22.39;53.40;100374.97;1715499;82;21276;-56
2021/06/22 02:16:39;;;;;;;14.10;3.45;;;;;;;22.39;53.54;100363.81;1734915;81;21379;-57
2021/06/22 02:19:44;;;;;;;13.30;2.60;;;;;;;22.39;53.83;100364.64;1734964;81;21358;-57
2021/06/22 02:22:57;;;;;;;15.53;2.70;;;;;;;22.39;53.76;100370.79;1740124;82;21184;-58
2021/06/22 02:26:05;;;;;;;16.52;3.02;;;;;;;22.40;53.74;100369.14;1715417;82;21351;-57
2021/06/22 02:29:10;;;;;;;14.15;3.58;;;;;;;22.42;53.64;100368.89;1735120;82;21465;-57
2021/06/22 02:32:15;;;;;;;12.47;2.70;;;;;;;22.44;53.81;100368.09;1735520;82;21347;-58
2021/06/22 02:35:22;;;;;;;15.80;2.67;;;;;;;22.45;53.75;100371.16;1739342;81;21259;-57
2021/06/22 02:38:30;;;;;;;20.50;3.05;;;;;;;22.44;53.94;100382.86;1735265;82;21857;-57
2021/06/22 02:41:37;;;;;;;19.82;2.83;;;;;;;22.47;54.25;100391.30;1739739;81;21867;-56
2021/06/22 02:44:43;;;;;;;11.83;2.65;;;;;;;22.49;54.11;100392.72;1734729;81;21292;-58
2021/06/22 02:47:50;;;;;;;14.85;3.22;;;;;;;22.53;54.63;100403.72;1734686;82;21347;-58
2021/06/22 02:50:57;;;;;;;13.50;3.12;;;;;;;22.56;54.07;100389.80;1739701;81;21229;-56
2021/06/22 02:54:04;;;;;;;12.75;3.50;;;;;;;22.60;54.08;100390.97;1735104;82;21225;-55
2021/06/22 02:57:13;;;;;;;15.03;2.70;;;;;;;22.66;53.51;100391.38;1735238;82;21377;-56
2021/06/22 03:00:20;;;;;;;18.80;3.67;;;;;;;22.70;53.16;100400.92;1740158;79;21342;-55
2021/06/22 03:03:28;;;;;;;9.00;2.83;;;;;;;22.75;53.00;100398.21;1757808;81;21211;-55
2021/06/22 03:06:35;;;;;;;14.75;2.45;;;;;;;22.82;52.95;100401.12;1758166;80;21393;-52
2021/06/22 03:09:44;;;;;;;16.20;3.20;;;;;;;22.88;52.73;100395.08;1742039;81;21228;-59
2021/06/22 03:12:49;;;;;;;13.10;4.47;;;;;;;22.90;52.60;100388.66;1758219;81;21263;-53
2021/06/22 03:15:57;;;;;;;12.90;3.60;;;;;;;22.93;52.80;100390.40;1758096;80;21223;-52
2021/06/22 03:19:02;;;;;;;20.00;3.85;;;;;;;23.00;52.66;100377.66;1742200;82;21208;-54
2021/06/22 03:22:09;;;;;;;16.80;4.10;;;;;;;23.05;52.71;100377.73;1758167;81;21212;-51
2021/06/22 03:25:16;;;;;;;15.58;3.70;;;;;;;23.11;52.68;100378.09;1758036;80;21382;-58
2021/06/22 03:28:24;;;;;;;14.55;3.37;;;;;;;23.11;53.03;100383.69;1758033;81;21409;-59
2021/06/22 03:31:47;;;;;;;15.60;3.10;;;;;;;23.14;53.41;100372.00;1758172;80;21266;-59
2021/06/22 03:34:52;;;;;;;15.18;2.95;;;;;;;23.15;53.46;100366.14;1758310;80;21370;-59
2021/06/22 03:37:57;;;;;;;22.75;3.05;;;;;;;23.18;53.54;100365.63;1758137;81;21212;-59
2021/06/22 03:41:02;;;;;;;19.95;3.72;;;;;;;23.25;53.63;100364.05;1758346;80;21278;-59
2021/06/22 03:44:09;;;;;;;17.55;4.17;;;;;;;23.30;53.50;100354.38;1742439;82;21209;-59
2021/06/22 03:47:16;;;;;;;18.02;3.15;;;;;;;23.28;53.32;100367.75;1745104;82;21268;-60
2021/06/22 03:50:24;;;;;;;25.90;3.58;;;;;;;23.23;53.82;100364.88;1744505;81;21219;-57
2021/06/22 03:53:29;;;;;;;22.93;4.00;;;;;;;23.27;53.99;100383.69;1744264;82;21350;-60
2021/06/22 03:56:36;;;;;;;26.20;3.95;;;;;;;23.34;53.86;100383.50;1758018;80;21398;-57
2021/06/22 03:59:46;;;;;;;18.67;4.72;;;;;;;23.40;53.64;100392.24;1757979;80;21200;-59
2021/06/22 04:02:56;;;;;;;24.67;5.10;;;;;;;23.45;53.67;100386.72;1704207;81;21851;-58
2021/06/22 04:06:05;;;;;;;25.15;4.87;;;;;;;23.54;53.33;100404.17;1717016;82;21247;-57
2021/06/22 04:09:13;;;;;;;18.42;4.83;;;;;;;23.66;53.25;100403.20;1716263;82;21331;-57
2021/06/22 04:12:21;;;;;;;25.10;4.30;;;;;;;23.75;53.16;100398.28;1721893;83;21210;-57
2021/06/22 04:15:27;;;;;;;30.17;5.03;;;;;;;23.83;52.91;100396.42;1714396;82;21398;-59
2021/06/22 04:18:32;;;;;;;29.07;4.50;;;;;;;23.94;52.71;100404.37;1715157;82;21322;-57
2021/06/22 04:21:39;;;;;;;21.52;5.05;;;;;;;24.03;52.65;100407.01;1721444;82;21365;-57
2021/06/22 04:24:50;;;;;;;28.83;4.17;;;;;;;24.11;52.33;100401.80;1702385;83;21374;-57
2021/06/22 04:27:56;;;;;;;21.65;5.00;;;;;;;24.16;51.99;100407.45;1672397;85;21268;-58
2021/06/22 04:31:01;;;;;;;36.05;4.60;;;;;;;24.23;52.10;100409.47;1701952;83;21682;-59
2021/06/22 04:34:07;;;;;;;23.38;4.78;;;;;;;24.26;51.95;100400.55;1714209;83;21357;-58
2021/06/22 04:37:13;;;;;;;33.45;5.42;;;;;;;24.28;51.44;100399.73;1672200;85;21364;-57
2021/06/22 04:40:19;;;;;;;28.35;5.50;;;;;;;24.28;51.58;100403.93;1701818;83;21362;-58
2021/06/22 04:43:27;;;;;;;31.42;6.03;;;;;;;24.31;51.98;100409.56;1702051;84;21741;-58
2021/06/22 04:46:32;;;;;;;37.85;5.10;;;;;;;24.37;52.19;100416.90;1701927;83;21235;-58
2021/06/22 04:49:43;;;;;;;21.70;4.80;;;;;;;24.45;52.68;100418.64;1688139;85;21310;-57
2021/06/22 04:52:48;;;;;;;27.73;5.65;;;;;;;24.54;51.92;100414.81;1668602;84;21334;-58
2021/06/22 04:55:55;;;;;;;29.05;4.90;;;;;;;24.61;52.12;100420.47;1658596;86;21255;-57
2021/06/22 04:59:02;;;;;;;33.70;6.00;;;;;;;24.69;51.69;100418.62;1658514;86;21211;-54
2021/06/22 05:02:07;;;;;;;37.38;6.37;;;;;;;24.75;52.07;100413.92;1658428;86;21278;-53
2021/06/22 05:05:13;;;;;;;38.23;7.20;;;;;;;24.83;52.12;100421.25;1691974;84;21246;-53
2021/06/22 05:08:19;;;;;;;32.95;5.90;;;;;;;24.88;51.52;100430.25;1723412;80;21176;-54
2021/06/22 05:11:27;;;;;;;29.15;5.87;;;;;;;24.95;50.73;100437.88;1736666;81;21751;-53
2021/06/22 05:14:35;;;;;;;36.93;7.12;;;;;;;25.04;50.51;100436.26;1704183;81;21206;-53
2021/06/22 05:17:42;;;;;;;38.33;7.10;;;;;;;25.15;50.66;100439.42;1718142;82;21198;-54
2021/06/22 05:20:47;;;;;;;39.75;6.35;;;;;;;25.29;50.84;100431.40;1690880;85;21243;-53
2021/06/22 05:23:53;;;;;;;41.18;7.60;;;;;;;25.40;49.54;100427.58;1713074;83;21200;-53
2021/06/22 05:27:01;;;;;;;34.43;6.42;;;;;;;25.50;49.18;100428.47;1725056;82;21228;-53
2021/06/22 05:30:06;;;;;;;42.10;6.47;;;;;;;25.62;49.53;100434.71;1750504;82;21932;-53
2021/06/22 05:33:11;;;;;;;45.73;7.03;;;;;;;25.72;48.97;100449.34;1755401;80;21935;-53
2021/06/22 05:36:16;;;;;;;43.02;7.53;;;;;;;25.81;48.58;100441.53;1690959;85;21235;-54
2021/06/22 05:39:21;;;;;;;37.58;5.58;;;;;;;25.86;48.08;100434.52;1720681;83;21195;-53
2021/06/22 05:42:26;;;;;;;45.88;6.90;;;;;;;25.89;48.63;100441.01;1723435;81;21307;-54
2021/06/22 05:45:31;;;;;;;38.58;6.53;;;;;;;25.90;48.33;100450.25;1751666;82;21362;-54
2021/06/22 05:48:36;;;;;;;36.40;7.90;;;;;;;25.93;48.51;100452.50;1719191;82;21860;-52
2021/06/22 05:51:42;;;;;;;43.30;7.40;;;;;;;25.98;48.37;100469.36;1748272;82;21192;-52
2021/06/22 05:54:48;;;;;;;45.15;6.85;;;;;;;26.00;48.32;100466.62;1689596;84;21580;-52
2021/06/22 05:58:00;;;;;;;42.73;7.03;;;;;;;26.02;48.04;100474.17;1688910;84;21599;-53
2021/06/22 06:01:04;;;;;;;44.38;7.20;;;;;;;26.00;47.72;100471.37;1689282;84;21242;-53
2021/06/22 06:04:12;;;;;;;44.13;7.15;;;;;;;25.99;47.95;100482.29;1689621;83;21290;-52
2021/06/22 06:07:17;;;;;;;37.42;7.42;;;;;;;25.95;48.73;100475.52;1718394;83;21258;-52
2021/06/22 06:10:23;;;;;;;41.85;6.22;;;;;;;25.93;49.21;100474.40;1718554;82;21417;-53
2021/06/22 06:13:40;;;;;;;38.58;6.72;;;;;;;25.92;49.63;100472.72;1718206;83;21204;-52
2021/06/22 06:16:46;;;;;;;48.02;7.90;;;;;;;25.89;49.95;100468.21;1718480;82;21266;-53
2021/06/22 06:19:52;;;;;;;49.23;11.50;;;;;;;25.84;49.58;100450.80;1713743;83;21342;-53
2021/06/22 06:22:58;;;;;;;49.00;10.25;;;;;;;25.81;49.42;100454.70;1749119;81;21777;-53
2021/06/22 06:26:05;;;;;;;39.67;7.83;;;;;;;25.80;49.99;100454.44;1749541;81;21238;-53
2021/06/22 06:29:29;;;;;;;38.67;7.28;;;;;;;25.82;49.86;100450.22;1747974;81;21224;-53
2021/06/22 06:32:26;;;;;;;45.00;7.25;;;;;;;25.86;49.33;100452.75;1730796;82;21248;-52
2021/06/22 06:35:31;;;;;;;49.98;6.60;;;;;;;25.91;49.73;100454.77;1744966;82;21266;-53
2021/06/22 06:38:38;;;;;;;50.25;7.37;;;;;;;25.95;48.90;100457.28;1749002;81;21215;-53
2021/06/22 06:41:43;;;;;;;49.00;7.12;;;;;;;25.93;48.58;100456.70;1729420;82;21243;-54
2021/06/22 06:44:49;;;;;;;49.42;7.85;;;;;;;25.98;49.03;100453.92;1740028;80;21242;-53
2021/06/22 06:47:54;;;;;;;43.35;6.55;;;;;;;26.08;49.60;100455.41;1733314;82;21217;-53
2021/06/22 06:51:00;;;;;;;41.95;7.67;;;;;;;26.22;49.23;100446.75;1725186;81;21207;-53
2021/06/22 06:54:09;;;;;;;48.35;7.50;;;;;;;26.42;48.25;100446.78;1748845;82;21180;-54
2021/06/22 06:57:15;;;;;;;52.85;8.95;;;;;;;26.63;48.35;100448.51;1750500;82;21361;-54
2021/06/22 07:00:23;;;;;;;37.55;7.85;;;;;;;26.79;47.66;100436.20;1738567;82;21916;-52
2021/06/22 07:03:29;;;;;;;31.48;7.03;;;;;;;26.84;46.91;100445.18;1727970;83;21261;-53
2021/06/22 07:06:34;;;;;;;51.80;8.63;;;;;;;26.88;47.16;100442.11;1727528;83;21278;-54
2021/06/22 07:09:40;;;;;;;41.73;7.60;;;;;;;26.94;46.25;100445.19;1747171;82;21219;-54
2021/06/22 07:12:46;;;;;;;52.48;9.70;;;;;;;26.99;46.07;100441.80;1736496;82;21236;-54
2021/06/22 07:15:53;;;;;;;40.92;6.97;;;;;;;26.94;44.87;100440.39;1717403;82;21432;-53
2021/06/22 07:18:59;;;;;;;57.10;8.08;;;;;;;26.85;44.75;100440.69;1739840;82;21193;-54
2021/06/22 07:22:08;;;;;;;53.50;7.53;;;;;;;26.75;44.68;100453.90;1673272;83;21247;-54
2021/06/22 07:25:14;;;;;;;40.10;6.80;;;;;;;26.67;45.57;100453.05;1726371;83;21328;-54
2021/06/22 07:28:21;;;;;;;45.25;7.95;;;;;;;26.66;45.63;100456.95;1715672;83;21312;-55
2021/06/22 07:31:26;;;;;;;52.80;7.83;;;;;;;26.74;45.55;100460.06;1698438;83;21786;-54
2021/06/22 07:34:31;;;;;;;47.30;8.35;;;;;;;26.81;45.66;100462.61;1749813;81;21211;-58
2021/06/22 07:37:37;;;;;;;55.05;8.10;;;;;;;26.83;45.40;100465.40;1719761;82;21176;-53
2021/06/22 07:40:44;;;;;;;49.35;8.48;;;;;;;26.89;45.69;100458.69;1742865;82;21237;-53
2021/06/22 07:43:50;;;;;;;58.25;8.20;;;;;;;26.94;45.41;100471.30;1749584;81;21214;-52
2021/06/22 07:46:54;;;;;;;41.00;7.90;;;;;;;26.98;45.41;100464.02;1739938;81;22016;-52
2021/06/22 07:50:00;;;;;;;43.23;7.90;;;;;;;27.06;45.21;100461.19;1691095;83;21256;-53
2021/06/22 07:53:06;;;;;;;40.90;6.45;;;;;;;27.15;44.88;100458.94;1704247;82;21572;-52
2021/06/22 07:56:11;;;;;;;48.00;7.40;;;;;;;27.32;43.80;100462.31;1712745;83;21250;-51
2021/06/22 07:59:17;;;;;;;54.75;6.87;;;;;;;27.54;43.70;100464.82;1729471;82;21776;-51
2021/06/22 08:02:22;;;;;;;43.65;7.15;;;;;;;27.73;44.13;100470.11;1704357;82;21268;-53
2021/06/22 08:05:27;;;;;;;33.38;6.83;;;;;;;27.92;43.32;100477.39;1726943;81;21196;-51
2021/06/22 08:08:35;;;;;;;38.48;5.92;;;;;;;28.00;43.46;100480.46;1698931;83;21242;-50
2021/06/22 08:11:40;;;;;;;35.90;6.83;;;;;;;28.08;43.12;100478.45;1696511;84;21240;-52
2021/06/22 08:14:46;;;;;;;46.20;7.15;;;;;;;28.17;41.89;100478.68;1703583;84;21271;-51
2021/06/22 08:17:52;;;;;;;28.15;5.58;;;;;;;28.23;42.08;100480.33;1704295;83;21398;-52
2021/06/22 08:20:57;;;;;;;33.98;6.42;;;;;;;28.30;40.91;100485.95;1689528;83;21753;-51
2021/06/22 08:24:03;;;;;;;36.80;5.25;;;;;;;28.35;40.27;100485.89;1717014;83;21812;-53
2021/06/22 08:27:10;;;;;;;32.08;5.17;;;;;;;28.42;40.53;100486.43;1694481;82;21248;-53
2021/06/22 08:30:19;;;;;;;26.68;5.05;;;;;;;28.45;41.09;100485.00;1719359;82;21788;-52
2021/06/22 08:33:25;;;;;;;27.67;5.08;;;;;;;28.49;41.47;100488.97;1681410;83;21243;-51
2021/06/22 08:36:31;;;;;;;28.05;4.58;;;;;;;28.53;41.26;100492.88;1669592;86;21378;-52
2021/06/22 08:39:36;;;;;;;30.35;4.53;;;;;;;28.59;41.89;100474.23;1675289;84;21229;-52
2021/06/22 08:42:45;;;;;;;20.72;4.17;;;;;;;28.66;41.62;100469.69;1712088;83;21792;-53
2021/06/22 08:45:51;;;;;;;27.85;4.92;;;;;;;28.74;41.69;100474.70;1675819;85;21748;-53
2021/06/22 08:48:57;;;;;;;31.42;5.17;;;;;;;28.80;41.43;100486.20;1682358;85;21431;-52
2021/06/22 08:52:05;;;;;;;26.77;4.05;;;;;;;28.87;41.57;100474.05;1697142;83;21244;-51
2021/06/22 08:55:32;;;;;;;18.10;3.67;;;;;;;28.95;41.91;100485.55;1729780;80;21801;-54
2021/06/22 08:58:33;;;;;;;25.10;4.40;;;;;;;29.03;40.56;100486.89;1742368;82;21543;-51
2021/06/22 09:01:39;;;;;;;21.40;3.95;;;;;;;29.08;39.86;100486.30;1738481;81;21818;-51
2021/06/22 09:04:45;;;;;;;23.52;4.05;;;;;;;29.14;40.36;100489.33;1706109;82;21273;-53
2021/06/22 09:07:57;;;;;;;15.85;3.65;;;;;;;29.21;40.00;100482.80;1716009;83;21179;-51
2021/06/22 09:11:20;;;;;;;24.57;3.45;;;;;;;29.26;39.64;100481.09;1721172;83;21865;-51
2021/06/22 09:14:27;;;;;;;23.15;2.92;;;;;;;29.32;40.36;100484.95;1749453;81;21791;-51
2021/06/22 09:17:42;;;;;;;25.25;3.42;;;;;;;29.42;39.66;100470.75;1719891;82;21711;-51
2021/06/22 09:20:42;;;;;;;29.07;3.98;;;;;;;29.49;39.36;100480.28;1731112;83;21199;-52
2021/06/22 09:23:44;;;;;;;25.27;3.83;;;;;;;29.57;40.00;100479.08;1723215;83;21389;-51
2021/06/22 09:26:56;;;;;;;18.12;3.20;;;;;;;29.62;40.36;100481.81;1726122;83;21254;-50
2021/06/22 09:30:00;;;;;;;10.70;3.15;;;;;;;29.69;40.39;100478.11;1732508;81;21592;-51
2021/06/22 09:33:06;;;;;;;18.40;2.60;;;;;;;29.80;39.82;100481.09;1719766;83;21198;-51
2021/06/22 09:36:14;;;;;;;20.92;2.92;;;;;;;29.88;37.90;100492.28;1720204;81;21802;-52
2021/06/22 09:39:19;;;;;;;11.80;2.40;;;;;;;29.93;37.24;100489.41;1716123;83;21198;-51
2021/06/22 09:42:24;;;;;;;21.75;3.35;;;;;;;29.99;36.87;100491.02;1707452;83;21218;-51
2021/06/22 09:45:30;;;;;;;12.53;2.95;;;;;;;30.10;36.82;100486.37;1726198;83;21219;-51
2021/06/22 09:48:36;;;;;;;20.82;5.00;;;;;;;30.18;37.07;100488.52;1728217;83;21354;-51
2021/06/22 09:51:53;;;;;;;17.70;3.27;;;;;;;30.27;38.35;100497.21;1727828;81;21711;-52
2021/06/22 09:55:00;;;;;;;13.38;2.92;;;;;;;30.39;37.72;100487.15;1711657;82;21218;-52
2021/06/22 09:58:07;;;;;;;10.38;2.27;;;;;;;30.50;35.97;100496.31;1690882;83;21882;-50
2021/06/22 10:01:12;;;;;;;14.10;2.58;;;;;;;30.60;36.41;100501.23;1727644;82;21955;-50
2021/06/22 10:04:32;;;;;;;13.38;2.85;;;;;;;30.72;35.71;100505.59;1742556;80;21217;-50
2021/06/22 10:07:39;;;;;;;15.83;3.58;;;;;;;30.82;35.66;100502.66;1736956;81;21244;-50
2021/06/22 10:10:45;;;;;;;12.65;2.67;;;;;;;30.90;35.46;100500.55;1664329;83;21240;-50
2021/06/22 10:13:51;;;;;;;13.65;2.60;;;;;;;31.05;35.73;100503.97;1730724;82;21187;-51
2021/06/22 10:16:56;;;;;;;15.38;2.77;;;;;;;31.05;35.73;100503.97;1749245;82;21633;-50
2021/06/22 10:20:04;;;;;;;14.40;3.20;;;;;;;31.18;36.29;100498.09;1719347;83;21230;-51
2021/06/22 10:23:10;;;;;;;16.42;1.72;;;;;;;31.33;36.71;100509.20;1711392;84;21601;-51
2021/06/22 10:26:14;;;;;;;18.12;2.30;;;;;;;31.44;34.72;100501.64;1751262;80;21222;-52
2021/06/22 10:29:25;;;;;;;8.10;1.65;;;;;;;31.50;33.41;100494.73;1738933;82;21758;-51
2021/06/22 10:32:33;;;;;;;14.35;2.10;;;;;;;31.61;33.57;100495.36;1725093;81;21763;-51
2021/06/22 10:35:39;;;;;;;11.83;1.72;;;;;;;31.68;32.93;100488.14;1723872;82;21214;-51
2021/06/22 10:38:46;;;;;;;6.53;2.35;;;;;;;31.72;33.40;100486.38;1726606;81;21204;-52
2021/06/22 10:41:52;;;;;;;8.25;1.92;;;;;;;31.86;33.75;100496.31;1732520;82;21169;-50
2021/06/22 10:45:08;;;;;;;6.03;1.47;;;;;;;31.89;31.90;100491.44;1710459;82;21220;-51
2021/06/22 10:48:14;;;;;;;10.53;1.77;;;;;;;31.95;32.38;100492.44;1747481;82;21192;-51
2021/06/22 10:51:52;;;;;;;7.87;1.70;;;;;;;32.01;31.17;100497.44;1726342;82;21219;-51
2021/06/22 10:54:58;;;;;;;6.20;1.60;;;;;;;32.08;31.63;100493.59;1742824;81;22177;-54
2021/06/22 10:58:16;;;;;;;12.80;1.62;;;;;;;32.18;32.37;100494.80;1739084;80;21749;-53
2021/06/22 11:01:22;;;;;;;11.22;1.90;;;;;;;32.30;32.47;100504.20;1703249;84;21246;-53
2021/06/22 11:04:28;;;;;;;8.50;2.10;;;;;;;32.39;31.64;100498.92;1744036;81;21242;-51
2021/06/22 11:07:35;;;;;;;18.02;3.35;;;;;;;32.45;31.71;100503.31;1718113;82;21212;-51
2021/06/22 11:10:41;;;;;;;8.33;1.90;;;;;;;32.54;32.60;100501.40;1711517;84;21766;-54
2021/06/22 11:13:59;;;;;;;9.78;1.70;;;;;;;32.60;31.21;100491.61;1711506;84;21332;-52
2021/06/22 11:17:06;;;;;;;14.50;2.00;;;;;;;32.67;32.17;100491.18;1710501;84;21283;-49
2021/06/22 11:20:18;;;;;;;7.62;1.45;;;;;;;32.75;32.00;100485.60;1727300;80;21235;-51
2021/06/22 11:23:24;;;;;;;6.80;1.77;;;;;;;32.77;31.67;100490.38;1708852;82;21186;-49
2021/06/22 11:26:30;;;;;;;5.25;1.40;;;;;;;32.76;31.84;100481.59;1729273;80;21213;-50
2021/06/22 11:29:50;;;;;;;6.53;1.57;;;;;;;32.81;32.41;100478.64;1710474;82;21227;-50
2021/06/22 11:32:57;;;;;;;11.60;1.80;;;;;;;32.88;32.64;100467.73;1737936;80;22059;-50
2021/06/22 11:36:28;;;;;;;8.65;1.90;;;;;;;32.96;32.05;100461.30;1728548;82;21195;-49
2021/06/22 11:40:09;;;;;;;9.35;1.32;;;;;;;33.05;32.18;100466.45;1741167;82;21727;-50
2021/06/22 11:43:18;;;;;;;5.87;1.40;;;;;;;33.10;31.77;100462.06;1636083;87;21203;-49
2021/06/22 11:46:38;;;;;;;11.83;1.70;;;;;;;33.16;32.28;100465.02;1645938;87;21290;-51
2021/06/22 11:49:47;;;;;;;6.25;1.40;;;;;;;33.19;31.92;100457.27;1718863;82;21229;-50
2021/06/22 11:52:54;;;;;;;8.10;1.70;;;;;;;33.21;31.58;100457.80;1710865;82;21635;-49
2021/06/22 11:56:02;;;;;;;11.30;3.42;;;;;;;33.28;31.69;100463.02;1709325;81;21630;-51
2021/06/22 11:59:08;;;;;;;10.15;1.52;;;;;;;33.33;31.42;100450.94;1703601;84;21200;-50
2021/06/22 12:02:15;;;;;;;13.62;1.70;;;;;;;33.37;30.58;100472.42;1695190;84;21213;-51
2021/06/22 12:05:21;;;;;;;11.35;1.77;;;;;;;33.40;30.61;100468.14;1739539;82;21223;-50
2021/06/22 12:08:33;;;;;;;9.70;1.52;;;;;;;33.41;31.17;100464.98;1739398;82;21195;-49
2021/06/22 12:11:43;;;;;;;8.95;1.92;;;;;;;33.49;32.27;100471.27;1710701;82;21261;-50
2021/06/22 12:14:56;;;;;;;8.40;1.82;;;;;;;33.53;31.94;100470.88;1710954;84;21620;-50
2021/06/22 12:18:04;;;;;;;9.00;1.57;;;;;;;33.51;31.37;100468.94;1712256;83;21210;-49
2021/06/22 12:21:09;;;;;;;10.43;1.50;;;;;;;33.43;30.35;100483.11;1731471;82;21381;-51
2021/06/22 12:24:16;;;;;;;9.03;1.75;;;;;;;33.33;30.70;100478.50;1732661;82;21378;-49
2021/06/22 12:27:22;;;;;;;9.70;1.60;;;;;;;33.26;30.38;100475.27;1727242;82;21230;-49
2021/06/22 12:30:40;;;;;;;8.40;1.72;;;;;;;33.20;30.63;100481.68;1739671;82;21407;-49
2021/06/22 12:33:55;;;;;;;9.90;2.02;;;;;;;33.17;31.42;100485.73;1723842;82;21400;-53
2021/06/22 12:37:03;;;;;;;11.12;1.52;;;;;;;33.12;31.27;100475.36;1711307;83;21187;-50
2021/06/22 12:40:08;;;;;;;9.58;2.20;;;;;;;33.09;32.15;100471.72;1711365;82;21214;-48
2021/06/22 12:43:13;;;;;;;8.53;1.55;;;;;;;33.09;32.98;100480.23;1711063;84;21758;-48
2021/06/22 12:46:19;;;;;;;8.98;1.77;;;;;;;33.08;31.62;100467.78;1720796;82;21219;-49
2021/06/22 12:49:28;;;;;;;5.87;1.15;;;;;;;33.07;32.14;100469.80;1733085;82;21235;-48
2021/06/22 12:52:36;;;;;;;6.03;1.40;;;;;;;33.04;32.33;100464.78;1707220;82;21268;-49
2021/06/22 12:55:55;;;;;;;8.75;1.50;;;;;;;33.00;32.40;100459.47;1724584;82;21381;-49
2021/06/22 12:59:10;;;;;;;7.22;1.30;;;;;;;32.95;32.70;100461.02;1746037;82;21764;-49
2021/06/22 13:02:15;;;;;;;9.18;2.15;;;;;;;32.93;33.29;100471.88;1716560;83;21195;-47
2021/06/22 13:05:21;;;;;;;7.10;1.62;;;;;;;32.91;32.32;100469.92;1742254;82;22096;-48
2021/06/22 13:08:29;;;;;;;13.40;2.02;;;;;;;32.83;33.25;100467.81;1737240;82;21232;-50
2021/06/22 13:11:44;;;;;;;12.68;1.70;;;;;;;32.87;33.91;100471.67;1742583;82;21836;-50
2021/06/22 13:14:55;;;;;;;6.92;1.72;;;;;;;32.95;33.34;100471.55;1742387;82;21210;-50
2021/06/22 13:18:03;;;;;;;11.88;1.85;;;;;;;32.96;33.53;100471.22;1711959;82;21203;-50
2021/06/22 13:21:14;;;;;;;8.93;2.12;;;;;;;32.92;33.20;100462.27;1705978;82;21204;-48
2021/06/22 13:24:21;;;;;;;9.63;1.67;;;;;;;32.83;33.26;100465.55;1735120;82;21203;-48
2021/06/22 13:27:50;;;;;;;7.42;1.60;;;;;;;32.83;33.67;100466.97;1741072;82;21364;-49
2021/06/22 13:30:54;;;;;;;11.78;1.67;;;;;;;32.82;34.06;100469.56;1734511;82;21236;-48
2021/06/22 13:34:15;;;;;;;15.98;1.98;;;;;;;32.72;34.43;100464.13;1743716;82;21300;-48
2021/06/22 13:37:20;;;;;;;11.97;2.20;;;;;;;32.66;35.46;100473.92;1744393;82;21201;-48
2021/06/22 13:40:26;;;;;;;8.88;1.67;;;;;;;32.63;35.93;100471.16;1743686;82;21861;-48
2021/06/22 13:43:37;;;;;;;13.90;2.27;;;;;;;32.66;36.46;100467.67;1744115;82;21579;-47
2021/06/22 13:46:44;;;;;;;9.08;1.77;;;;;;;32.73;35.85;100475.75;1744421;82;21406;-48
2021/06/22 13:49:51;;;;;;;12.90;2.55;;;;;;;32.81;36.20;100467.30;1744279;82;21244;-48
2021/06/22 13:53:03;;;;;;;4.65;1.52;;;;;;;32.88;35.47;100466.31;1744223;82;21276;-48
2021/06/22 13:56:12;;;;;;;4.78;1.50;;;;;;;32.95;35.44;100472.36;1744895;81;21744;-47
2021/06/22 13:59:17;;;;;;;11.00;1.77;;;;;;;32.95;34.12;100463.85;1740230;81;21894;-49
2021/06/22 14:02:24;;;;;;;4.42;2.52;;;;;;;32.99;33.63;100466.32;1711151;84;21250;-48
2021/06/22 14:05:30;;;;;;;10.45;1.55;;;;;;;32.98;33.17;100468.88;1695640;83;21924;-48
2021/06/22 14:08:36;;;;;;;8.73;1.75;;;;;;;32.95;32.83;100472.96;1741690;81;21346;-48
2021/06/22 14:11:42;;;;;;;6.33;1.45;;;;;;;32.86;33.84;100468.59;1709905;82;21263;-49
2021/06/22 14:14:47;;;;;;;13.83;1.87;;;;;;;32.85;34.44;100471.18;1709847;84;21283;-47
2021/06/22 14:17:54;;;;;;;7.15;1.65;;;;;;;32.82;34.62;100467.57;1709886;84;21757;-50
2021/06/22 14:21:01;;;;;;;9.35;1.90;;;;;;;32.80;34.51;100459.95;1709300;84;21211;-50
2021/06/22 14:24:08;;;;;;;3.25;1.30;;;;;;;32.75;34.24;100463.48;1741128;82;21330;-48
2021/06/22 14:27:14;;;;;;;13.13;1.47;;;;;;;32.61;34.27;100472.61;1737971;82;21953;-48